Impacts METAR Board
IDs:

KMIA - Miami Intl, FL, US

Updated at: 0600 UTC 24 Jan 2019
Potential Impact None Slight Moderate High
Time 23/18Z 23/19Z 23/20Z 23/21Z 23/22Z 23/23Z 24/00Z 24/01Z 24/02Z 24/03Z 24/04Z 24/05Z 24/06Z
Temp79 78 76 77 76 75 75 75 74 74 75 74 75
Dewpt66 66 66 67 66 66 67 66 68 68 69 69 70
Altim30.18 30.14 30.13 30.12 30.11 30.10 30.09 30.08 30.08 30.06 30.05 30.02 29.98
VIS10 10 10 10 10 10 10 10 10 10 10 10 10
CIG250 250 40 33 50 50 48 41 35 27 25 25 28
CoverBKNBKNOVCOVCBKNBKNOVCOVCOVCOVCOVCBKNBKN
FltCatVFRVFRVFRVFRVFRVFRVFRVFRVFRMVFRMVFRMVFRMVFR
WX--------------------------
WDir120130120110120110120130130140140140150
WSpd15 15 16 15 14 14 12 13 13 14 14 17 17
WGst-- 24 -- -- 20 -- 20 20 22 20 22 24 26
Raw hourly METARs
KMIA 231753Z COR 12015KT 10SM FEW026 SCT030 SCT055 BKN250 26/19 A3018 RMK AO2 PK WND 11026/1713 SLP220 T02610189 10261 20222 58020
KMIA 231853Z 13015G24KT 10SM SCT026 SCT040 BKN250 26/19 A3014 RMK AO2 PK WND 13030/1824 SLP207 T02560189
KMIA 231953Z 12016KT 10SM SCT026 BKN040 OVC250 24/19 A3013 RMK AO2 SLP203 T02440189
KMIA 232053Z 11015KT 10SM SCT027 BKN033 OVC055 25/19 A3012 RMK AO2 SLP199 T02500194 56021
KMIA 232153Z COR 12014G20KT 10SM FEW027 SCT042 BKN050 BKN250 24/19 A3011 RMK AO2 SLP195 T02440189
KMIA 232253Z 11014KT 10SM SCT033 BKN050 BKN250 24/19 A3010 RMK AO2 SLP191 T02390189
KMIA 232353Z 12012G20KT 10SM FEW030 SCT038 OVC048 24/19 A3009 RMK AO2 SLP188 T02390194 10261 20239 57010
KMIA 240053Z 13013G20KT 10SM FEW030 OVC041 24/19 A3008 RMK AO2 SLP187 T02390189
KMIA 240153Z 13013G22KT 10SM SCT028 OVC035 23/20 A3008 RMK AO2 SLP184 T02330200
KMIA 240256Z 14014G20KT 10SM BKN027 OVC040 23/20 A3006 RMK AO2 T02330200
KMIA 240353Z 14014G22KT 10SM BKN025 OVC035 24/21 A3005 RMK AO2 PK WND 15029/0324 SLP175 T02390206 $
KMIA 240453Z 14017G24KT 10SM BKN025 BKN034 23/21 A3002 RMK AO2 SLP165 T02330206 402610211 $
KMIA 240553Z 15017G26KT 10SM FEW023 BKN028 BKN034 24/21 A2998 RMK AO2 PK WND 14026/0540 SLP153 T02390211 10239 20233 58027 $



Page loaded:  06:34 UTC  |   10:34 PM Pacific  |   11:34 PM Mountain  |   12:34 AM Central  |   01:34 AM Eastern

 

ADVISORIES

FORECASTS

FORECASTS

OBSERVATIONS

USER TOOLS

ABOUT US